createdAt,value
2022-10-19T00:01:20.062Z,10.51
2022-10-19T00:03:36.757Z,10.51
2022-10-19T00:05:57.163Z,10.51
2022-10-19T00:08:17.539Z,10.47
2022-10-19T00:10:38.480Z,10.47
2022-10-19T00:12:56.797Z,10.47
2022-10-19T00:15:14.982Z,10.52
2022-10-19T00:17:33.152Z,10.52
2022-10-19T00:19:53.624Z,10.47
2022-10-19T00:22:14.286Z,10.51
2022-10-19T00:24:32.778Z,10.51
2022-10-19T00:26:50.891Z,10.52
2022-10-19T00:29:11.531Z,10.52
2022-10-19T00:30:11.447Z,10.44
2022-10-19T00:32:29.566Z,10.47
2022-10-19T00:34:47.700Z,10.47
2022-10-19T00:37:05.744Z,10.46
2022-10-19T00:39:23.863Z,10.46
2022-10-19T00:41:44.491Z,10.44
2022-10-19T00:44:05.579Z,10.43
2022-10-19T00:46:26.042Z,10.40
2022-10-19T00:48:44.233Z,10.43
2022-10-19T00:51:02.665Z,10.44
2022-10-19T00:53:20.609Z,10.42
2022-10-19T00:55:41.195Z,10.43
2022-10-19T00:58:00.367Z,10.43
2022-10-19T01:00:21.011Z,10.43
2022-10-19T01:02:41.517Z,10.43
2022-10-19T01:04:59.778Z,10.43
2022-10-19T01:07:20.376Z,10.44
2022-10-19T01:09:40.888Z,10.44
2022-10-19T01:12:01.368Z,10.43
2022-10-19T01:14:22.118Z,10.42
2022-10-19T01:16:40.069Z,10.42
2022-10-19T01:18:58.298Z,10.40
2022-10-19T01:21:18.908Z,10.40
2022-10-19T01:23:39.120Z,10.37
2022-10-19T01:25:59.963Z,10.33
2022-10-19T01:28:18.175Z,10.28
2022-10-19T01:30:38.886Z,10.18
2022-10-19T01:32:55.239Z,10.15
2022-10-19T01:35:15.923Z,10.15
2022-10-19T01:37:34.325Z,10.17
2022-10-19T01:39:50.550Z,10.15
2022-10-19T01:42:11.649Z,10.15
2022-10-19T01:44:32.335Z,10.17
2022-10-19T01:46:53.422Z,10.17
2022-10-19T01:49:13.957Z,10.18
2022-10-19T01:51:29.540Z,10.21
2022-10-19T01:53:45.242Z,10.18
2022-10-19T01:56:05.870Z,10.18
2022-10-19T01:58:26.398Z,10.14
2022-10-19T02:00:44.555Z,10.17
2022-10-19T02:03:05.002Z,10.18
2022-10-19T02:05:23.220Z,10.19
2022-10-19T02:07:41.297Z,10.21
2022-10-19T02:09:59.368Z,10.21
2022-10-19T02:12:17.524Z,10.25
2022-10-19T02:14:33.908Z,10.26
2022-10-19T02:16:52.009Z,10.26
2022-10-19T02:19:12.847Z,10.30
2022-10-19T02:21:34.754Z,10.26
2022-10-19T02:23:54.242Z,10.22
2022-10-19T02:26:09.507Z,10.26
2022-10-19T02:28:30.172Z,10.26
2022-10-19T02:30:51.234Z,10.25
2022-10-19T02:33:06.824Z,10.30
2022-10-19T02:35:23.400Z,10.28
2022-10-19T02:37:43.984Z,10.30
2022-10-19T02:40:04.573Z,10.34
2022-10-19T02:42:25.082Z,10.34
2022-10-19T02:44:45.813Z,10.33
2022-10-19T02:47:06.352Z,10.36
2022-10-19T02:49:26.530Z,10.37
2022-10-19T02:51:47.580Z,10.37
2022-10-19T02:54:05.282Z,10.37
2022-10-19T02:56:24.698Z,10.36
2022-10-19T02:58:45.396Z,10.36
2022-10-19T03:01:05.910Z,10.32
2022-10-19T03:03:26.508Z,10.32
2022-10-19T03:05:47.397Z,10.30
2022-10-19T03:08:05.139Z,10.34
2022-10-19T03:10:25.772Z,10.33
2022-10-19T03:12:46.917Z,10.36
2022-10-19T03:15:05.021Z,10.32
2022-10-19T03:17:23.214Z,10.36
2022-10-19T03:19:43.712Z,10.37
2022-10-19T03:22:01.947Z,10.37
2022-10-19T03:24:19.918Z,10.37
2022-10-19T03:26:34.604Z,10.37
2022-10-19T03:28:52.616Z,10.36
2022-10-19T03:31:08.157Z,10.36
2022-10-19T03:35:44.299Z,10.37
2022-10-19T03:38:02.416Z,10.37
2022-10-19T03:40:23.122Z,10.37
2022-10-19T03:42:41.382Z,10.37
2022-10-19T03:45:01.966Z,10.39
2022-10-19T03:47:23.275Z,10.39
2022-10-19T03:49:40.384Z,10.36
2022-10-19T03:51:57.810Z,10.37
2022-10-19T03:54:15.883Z,10.36
2022-10-19T03:56:36.484Z,10.33
2022-10-19T03:58:54.611Z,10.34
2022-10-19T04:01:12.666Z,10.34
2022-10-19T04:03:33.162Z,10.36
2022-10-19T04:05:53.826Z,10.34
2022-10-19T04:08:14.502Z,10.33
2022-10-19T04:10:35.577Z,10.30
2022-10-19T04:12:56.692Z,10.26
2022-10-19T04:15:14.838Z,10.28
2022-10-19T04:17:35.591Z,10.26
2022-10-19T04:19:55.957Z,10.24
2022-10-19T04:22:16.595Z,10.26
2022-10-19T04:24:37.206Z,10.33
2022-10-19T04:26:57.768Z,10.30
2022-10-19T04:29:18.397Z,10.37
2022-10-19T04:31:39.062Z,10.44
2022-10-19T04:33:59.601Z,10.51
2022-10-19T04:36:20.687Z,10.42
2022-10-19T04:38:41.294Z,10.40
2022-10-19T04:40:59.257Z,10.36
2022-10-19T04:43:17.459Z,10.32
2022-10-19T04:45:35.561Z,10.28
2022-10-19T04:47:53.592Z,10.28
2022-10-19T04:50:11.685Z,10.28
2022-10-19T04:52:32.163Z,10.32
2022-10-19T04:54:52.950Z,10.32
2022-10-19T04:57:13.473Z,10.34
2022-10-19T04:59:34.151Z,10.36
2022-10-19T05:01:53.189Z,10.42
2022-10-19T05:04:12.226Z,10.46
2022-10-19T05:06:32.787Z,10.47
2022-10-19T05:08:53.386Z,10.51
2022-10-19T05:11:14.013Z,10.53
2022-10-19T05:13:34.605Z,10.56
2022-10-19T05:15:55.207Z,10.58
2022-10-19T05:18:11.799Z,10.58
2022-10-19T05:20:30.168Z,10.56
2022-10-19T05:22:47.535Z,10.56
2022-10-19T05:25:08.106Z,10.59
2022-10-19T05:27:28.679Z,10.58
2022-10-19T05:29:46.783Z,10.58
2022-10-19T05:32:04.918Z,10.58
2022-10-19T05:34:22.904Z,10.59
2022-10-19T05:36:43.609Z,10.58
2022-10-19T05:39:04.231Z,10.62
2022-10-19T05:41:22.827Z,10.62
2022-10-19T05:43:38.254Z,10.63
2022-10-19T05:45:59.448Z,10.62
2022-10-19T05:48:19.833Z,10.63
2022-10-19T05:50:40.370Z,10.65
2022-10-19T05:53:01.003Z,10.63
2022-10-19T05:55:21.629Z,10.62
2022-10-19T05:57:42.753Z,10.62
2022-10-19T06:00:03.320Z,10.63
2022-10-19T06:02:23.896Z,10.63
2022-10-19T06:04:44.435Z,10.60
2022-10-19T06:07:05.103Z,10.63
2022-10-19T06:09:25.719Z,10.66
2022-10-19T06:11:46.846Z,10.68
2022-10-19T06:14:07.259Z,10.71
2022-10-19T06:16:27.971Z,10.73
2022-10-19T06:18:47.203Z,10.78
2022-10-19T06:21:07.632Z,10.78
2022-10-19T06:23:28.314Z,10.78
2022-10-19T06:25:48.851Z,10.78
2022-10-19T06:28:09.436Z,10.81
2022-10-19T06:30:30.198Z,10.83
2022-10-19T06:32:50.798Z,10.84
2022-10-19T06:35:11.287Z,10.88
2022-10-19T06:37:31.630Z,10.88
2022-10-19T06:39:52.431Z,10.88
2022-10-19T06:42:13.072Z,10.92
2022-10-19T06:44:32.639Z,10.95
2022-10-19T06:46:49.157Z,10.98
2022-10-19T06:49:09.798Z,10.99
2022-10-19T06:51:29.872Z,11.02
2022-10-19T06:53:48.952Z,11.07
2022-10-19T06:56:08.570Z,11.03
2022-10-19T06:58:29.157Z,11.06
2022-10-19T07:00:49.793Z,11.11
2022-10-19T07:03:10.335Z,11.11
2022-10-19T07:05:30.925Z,11.16
2022-10-19T07:07:49.040Z,11.20
2022-10-19T07:10:09.643Z,11.21
2022-10-19T07:12:26.224Z,11.24
2022-10-19T07:14:47.392Z,11.28
2022-10-19T07:17:07.908Z,11.32
2022-10-19T07:19:28.591Z,11.38
2022-10-19T07:21:49.673Z,11.43
2022-10-19T07:24:10.767Z,11.46
2022-10-19T07:26:31.305Z,11.50
2022-10-19T07:28:51.916Z,11.56
2022-10-19T07:31:08.526Z,11.62
2022-10-19T07:33:29.083Z,11.68
2022-10-19T07:35:49.757Z,11.77
2022-10-19T07:38:10.345Z,11.80
2022-10-19T07:40:30.924Z,11.86
2022-10-19T07:42:51.417Z,11.94
2022-10-19T07:45:12.077Z,11.99
2022-10-19T07:47:32.916Z,11.99
2022-10-19T07:49:53.233Z,12.02
2022-10-19T07:52:13.960Z,12.09
2022-10-19T07:54:34.996Z,12.13
2022-10-19T07:56:55.595Z,12.16
2022-10-19T07:59:16.648Z,12.21
2022-10-19T08:01:36.859Z,12.30
2022-10-19T08:05:04.291Z,12.27
2022-10-19T08:07:18.010Z,12.29
2022-10-19T08:09:52.797Z,12.34
2022-10-19T08:10:39.100Z,12.38
2022-10-19T08:12:59.116Z,12.39
2022-10-19T08:15:20.033Z,12.41
2022-10-19T08:17:40.621Z,12.49
2022-10-19T08:20:01.205Z,12.63
2022-10-19T08:22:21.805Z,12.71
2022-10-19T08:24:42.418Z,12.77
2022-10-19T08:27:03.071Z,12.84
2022-10-19T08:29:25.606Z,12.85
2022-10-19T08:31:44.738Z,12.89
2022-10-19T08:34:01.339Z,12.88
2022-10-19T08:36:21.949Z,12.95
2022-10-19T08:38:42.497Z,12.99
2022-10-19T08:41:03.017Z,13.11
2022-10-19T08:43:24.724Z,13.17
2022-10-19T08:45:45.798Z,13.12
2022-10-19T08:48:06.325Z,13.02
2022-10-19T08:50:27.010Z,12.78
2022-10-19T08:52:47.602Z,12.64
2022-10-19T08:55:08.176Z,12.62
2022-10-19T08:57:26.248Z,12.57
2022-10-19T08:59:42.806Z,12.66
2022-10-19T09:02:03.462Z,12.97
2022-10-19T09:04:24.521Z,13.04
2022-10-19T09:06:42.462Z,13.11
2022-10-19T09:09:03.217Z,13.27
2022-10-19T09:11:19.794Z,13.37
2022-10-19T09:13:53.235Z,13.56
2022-10-19T09:15:56.938Z,13.88
2022-10-19T09:18:17.557Z,14.24
2022-10-19T09:20:38.144Z,14.60
2022-10-19T09:22:57.356Z,14.93
2022-10-19T09:25:17.942Z,15.12
2022-10-19T09:27:36.049Z,14.98
2022-10-19T09:29:54.667Z,14.75
2022-10-19T09:32:14.699Z,14.49
2022-10-19T09:34:33.761Z,14.27
2022-10-19T09:36:54.342Z,14.20
2022-10-19T09:39:14.967Z,14.20
2022-10-19T09:41:35.873Z,14.10
2022-10-19T09:43:54.899Z,13.92
2022-10-19T09:46:20.033Z,13.80
2022-10-19T09:48:35.784Z,13.77
2022-10-19T09:50:56.698Z,13.80
2022-10-19T09:53:17.390Z,13.76
2022-10-19T09:55:38.063Z,13.73
2022-10-19T09:57:58.570Z,13.71
2022-10-19T10:00:19.174Z,13.65
2022-10-19T10:02:38.312Z,13.62
2022-10-19T10:04:58.799Z,13.73
2022-10-19T10:07:19.461Z,13.95
2022-10-19T10:09:40.474Z,14.12
2022-10-19T10:12:01.055Z,14.19
2022-10-19T10:14:21.666Z,14.09
2022-10-19T10:16:42.258Z,13.95
2022-10-19T10:19:01.356Z,13.77
2022-10-19T10:21:25.542Z,13.49
2022-10-19T10:23:42.512Z,13.38
2022-10-19T10:26:03.195Z,13.32
2022-10-19T10:28:23.699Z,13.32
2022-10-19T10:30:44.342Z,13.29
2022-10-19T10:33:15.855Z,13.27
2022-10-19T10:34:16.300Z,13.25
2022-10-19T10:35:05.826Z,13.21
2022-10-19T10:37:25.553Z,13.06
2022-10-19T10:39:46.569Z,13.14
2022-10-19T10:42:03.134Z,13.43
2022-10-19T10:44:23.819Z,13.73
2022-10-19T10:46:44.322Z,13.92
2022-10-19T10:49:04.963Z,14.21
2022-10-19T10:51:21.481Z,14.52
2022-10-19T10:53:42.185Z,14.91
2022-10-19T10:56:02.944Z,15.39
2022-10-19T10:58:25.602Z,15.57
2022-10-19T11:00:41.859Z,15.27
2022-10-19T11:03:02.549Z,14.87
2022-10-19T11:05:23.157Z,14.65
2022-10-19T11:07:43.677Z,14.43
2022-10-19T11:10:04.292Z,14.34
2022-10-19T11:12:24.926Z,14.09
2022-10-19T11:14:45.707Z,13.81
2022-10-19T11:17:06.049Z,13.83
2022-10-19T11:19:26.661Z,13.84
2022-10-19T11:21:45.782Z,13.99
2022-10-19T11:24:06.369Z,14.17
2022-10-19T11:26:26.878Z,14.44
2022-10-19T11:28:47.838Z,14.86
2022-10-19T11:31:08.439Z,15.28
2022-10-19T11:33:28.975Z,15.63
2022-10-19T11:35:47.341Z,15.64
2022-10-19T11:38:19.743Z,15.59
2022-10-19T11:39:08.214Z,15.56
2022-10-19T11:41:24.251Z,15.39
2022-10-19T11:43:42.417Z,15.36
2022-10-19T11:46:02.951Z,15.15
2022-10-19T11:48:23.604Z,14.75
2022-10-19T11:50:49.637Z,14.61
2022-10-19T11:53:04.750Z,14.38
2022-10-19T11:55:25.366Z,14.31
2022-10-19T11:57:46.018Z,14.20
2022-10-19T12:00:14.368Z,14.12
2022-10-19T12:01:04.605Z,14.10
2022-10-19T12:03:20.643Z,14.06
2022-10-19T12:05:41.216Z,14.02
2022-10-19T12:07:56.904Z,13.92
2022-10-19T12:10:17.458Z,14.04
2022-10-19T12:12:38.277Z,14.07
2022-10-19T12:14:57.227Z,14.14
2022-10-19T12:19:34.383Z,14.31
2022-10-19T12:21:55.258Z,14.21
2022-10-19T12:24:15.572Z,14.31
2022-10-19T12:26:36.214Z,14.27
2022-10-19T12:28:54.801Z,14.25
2022-10-19T12:31:11.349Z,14.25
2022-10-19T12:33:31.441Z,14.38
2022-10-19T12:35:52.056Z,14.50
2022-10-19T12:38:12.524Z,14.71
2022-10-19T12:40:33.270Z,14.81
2022-10-19T12:42:53.860Z,14.81
2022-10-19T12:45:15.440Z,14.72
2022-10-19T12:47:33.774Z,14.64
2022-10-19T12:49:51.786Z,14.62
2022-10-19T12:52:08.221Z,14.46
2022-10-19T12:54:28.783Z,14.39
2022-10-19T12:56:49.479Z,14.31
2022-10-19T12:59:10.002Z,14.31
2022-10-19T13:01:30.635Z,14.28
2022-10-19T13:03:51.292Z,14.16
2022-10-19T13:06:11.812Z,14.09
2022-10-19T13:08:30.279Z,13.98
2022-10-19T13:10:50.702Z,13.84
2022-10-19T13:13:11.387Z,13.67
2022-10-19T13:15:33.585Z,13.52
2022-10-19T13:17:54.039Z,13.27
2022-10-19T13:20:14.750Z,13.12
2022-10-19T13:22:35.628Z,12.95
2022-10-19T13:24:56.222Z,12.85
2022-10-19T13:27:16.792Z,12.75
2022-10-19T13:29:37.958Z,12.75
2022-10-19T13:31:56.044Z,12.84
2022-10-19T13:34:16.603Z,12.96
2022-10-19T13:36:37.239Z,13.06
2022-10-19T13:38:57.802Z,13.25
2022-10-19T13:41:18.443Z,13.41
2022-10-19T13:43:38.992Z,13.67
2022-10-19T13:45:55.473Z,13.89
2022-10-19T13:48:16.363Z,14.09
2022-10-19T13:50:36.788Z,14.13
2022-10-19T13:52:57.490Z,14.20
2022-10-19T13:55:17.991Z,14.14
2022-10-19T13:57:38.529Z,14.09
2022-10-19T13:59:59.188Z,13.96
2022-10-19T14:02:20.225Z,13.81
2022-10-19T14:04:40.849Z,13.70
2022-10-19T14:07:01.488Z,13.61
2022-10-19T14:09:23.478Z,13.62
2022-10-19T14:11:43.351Z,13.51
2022-10-19T14:14:04.108Z,13.41
2022-10-19T14:16:23.587Z,13.29
2022-10-19T14:18:44.156Z,13.12
2022-10-19T14:21:04.853Z,13.06
2022-10-19T14:23:25.634Z,12.97
2022-10-19T14:25:45.994Z,12.95
2022-10-19T14:28:06.553Z,12.93
2022-10-19T14:30:27.147Z,12.88
2022-10-19T14:32:47.724Z,12.84
2022-10-19T14:35:08.387Z,12.82
2022-10-19T14:37:25.833Z,12.84
2022-10-19T14:39:46.600Z,12.78
2022-10-19T14:42:07.160Z,12.67
2022-10-19T14:44:27.664Z,12.64
2022-10-19T14:46:48.308Z,12.66
2022-10-19T14:49:08.866Z,12.71
2022-10-19T14:51:29.514Z,12.79
2022-10-19T14:53:48.611Z,12.85
2022-10-19T14:56:07.691Z,13.04
2022-10-19T14:58:28.284Z,13.29
2022-10-19T15:00:46.397Z,13.25
2022-10-19T15:03:02.941Z,13.21
2022-10-19T15:05:23.553Z,13.24
2022-10-19T15:07:41.598Z,13.24
2022-10-19T15:10:02.329Z,13.20
2022-10-19T15:12:20.912Z,13.14
2022-10-19T15:14:40.958Z,13.02
2022-10-19T15:16:56.948Z,12.84
2022-10-19T15:19:13.243Z,12.66
2022-10-19T15:21:33.941Z,12.45
2022-10-19T15:23:53.135Z,12.34
2022-10-19T15:26:16.432Z,12.19
2022-10-19T15:28:27.670Z,11.97
2022-10-19T15:30:43.964Z,11.72
2022-10-19T15:33:00.963Z,11.50
2022-10-19T15:35:18.837Z,11.29
2022-10-19T15:37:33.607Z,11.11
2022-10-19T15:39:54.336Z,10.77
2022-10-19T15:42:14.812Z,10.65
2022-10-19T15:44:35.441Z,10.47
2022-10-19T15:46:54.666Z,10.26
2022-10-19T15:49:15.056Z,10.14
2022-10-19T15:51:31.723Z,9.96
2022-10-19T15:53:52.377Z,9.82
2022-10-19T15:56:13.651Z,9.71
2022-10-19T15:58:29.513Z,9.52
2022-10-19T16:00:46.173Z,9.38
2022-10-19T16:03:06.718Z,9.35
2022-10-19T16:05:34.232Z,9.27
2022-10-19T16:07:52.317Z,9.09
2022-10-19T16:10:10.512Z,9.05
2022-10-19T16:12:29.577Z,9.02
2022-10-19T16:14:50.186Z,8.96
2022-10-19T16:17:10.751Z,8.88
2022-10-19T16:19:31.380Z,8.81
2022-10-19T16:21:53.545Z,8.71
2022-10-19T16:24:09.973Z,8.63
2022-10-19T16:26:28.625Z,8.48
2022-10-19T16:28:49.129Z,8.36
2022-10-19T16:31:10.732Z,8.32
2022-10-19T16:33:27.356Z,8.26
2022-10-19T16:35:48.000Z,8.18
2022-10-19T16:38:08.584Z,8.17
2022-10-19T16:40:27.001Z,8.10
2022-10-19T16:42:44.279Z,7.97
2022-10-19T16:45:04.468Z,7.92
2022-10-19T16:47:22.498Z,7.78
2022-10-19T16:49:41.594Z,7.75
2022-10-19T16:52:00.677Z,7.66
2022-10-19T16:54:18.799Z,7.62
2022-10-19T16:56:34.348Z,7.56
2022-10-19T16:58:54.923Z,7.50
2022-10-19T17:01:15.615Z,7.42
2022-10-19T17:03:37.891Z,7.31
2022-10-19T17:05:54.184Z,7.40
2022-10-19T17:08:14.968Z,7.29
2022-10-19T17:10:35.468Z,7.17
2022-10-19T17:13:07.547Z,7.09
2022-10-19T17:15:42.572Z,7.01
2022-10-19T17:17:56.665Z,6.94
2022-10-19T17:20:17.240Z,6.86
2022-10-19T17:22:35.654Z,6.86
2022-10-19T17:24:56.496Z,6.86
2022-10-19T17:27:17.207Z,6.83
2022-10-19T17:29:38.177Z,6.86
2022-10-19T17:31:58.769Z,6.80
2022-10-19T17:34:17.160Z,6.68
2022-10-19T17:36:48.613Z,6.61
2022-10-19T17:58:53.672Z,6.25
2022-10-19T18:44:14.004Z,5.31
2022-10-19T18:47:55.265Z,5.17
2022-10-19T19:58:04.034Z,4.25
2022-10-19T20:00:24.241Z,4.22
2022-10-19T20:02:44.265Z,4.22
2022-10-19T20:05:05.223Z,4.14
2022-10-19T20:07:25.547Z,4.15
2022-10-19T20:09:47.108Z,4.10
2022-10-19T20:12:08.768Z,4.07
2022-10-19T20:14:29.690Z,4.04
2022-10-19T20:16:46.356Z,4.03
2022-10-19T20:19:07.265Z,4.08
2022-10-19T20:21:25.100Z,4.08
2022-10-19T20:23:45.697Z,4.15
2022-10-19T20:26:06.349Z,4.04
2022-10-19T20:28:26.959Z,4.00
2022-10-19T20:30:48.081Z,4.01
2022-10-19T20:33:08.670Z,4.01
2022-10-19T20:35:25.191Z,4.01
2022-10-19T20:37:46.883Z,3.96
2022-10-19T20:40:08.837Z,3.90
2022-10-19T20:42:23.924Z,3.82
2022-10-19T20:44:40.559Z,3.75
2022-10-19T20:47:01.080Z,3.76
2022-10-19T20:49:24.511Z,3.70
2022-10-19T20:51:43.888Z,3.65
2022-10-19T20:54:04.429Z,3.75
2022-10-19T20:56:22.839Z,3.72
2022-10-19T20:58:41.301Z,3.64
2022-10-19T21:00:58.813Z,3.60
2022-10-19T21:03:19.461Z,3.62
2022-10-19T21:05:41.046Z,3.67
2022-10-19T21:08:01.661Z,3.67
2022-10-19T21:10:22.168Z,3.67
2022-10-19T21:12:42.957Z,3.61
2022-10-19T21:15:03.546Z,3.60
2022-10-19T21:17:24.227Z,3.61
2022-10-19T21:19:42.328Z,3.67
2022-10-19T21:22:02.877Z,3.70
2022-10-19T21:24:24.533Z,3.61
2022-10-19T21:26:41.124Z,3.50
2022-10-19T21:28:57.655Z,3.44
2022-10-19T21:31:16.714Z,3.46
2022-10-19T21:33:37.812Z,3.44
2022-10-19T21:35:58.398Z,3.33
2022-10-19T21:38:19.062Z,3.30
2022-10-19T21:40:39.758Z,3.40
2022-10-19T21:42:58.253Z,3.39
2022-10-19T21:45:30.824Z,3.34
2022-10-19T21:47:35.566Z,3.31
2022-10-19T21:49:56.963Z,3.33
2022-10-19T21:52:17.533Z,3.36
2022-10-19T21:54:35.678Z,3.30
2022-10-19T21:56:54.716Z,3.31
2022-10-19T21:59:15.330Z,3.36
2022-10-19T22:01:37.312Z,3.25
2022-10-19T22:03:50.004Z,3.27
2022-10-19T22:06:11.182Z,3.31
2022-10-19T22:08:29.272Z,3.27
2022-10-19T22:10:49.960Z,3.28
2022-10-19T22:13:10.386Z,3.25
2022-10-19T22:15:32.056Z,3.27
2022-10-19T22:17:52.642Z,3.21
2022-10-19T22:20:13.674Z,3.12
2022-10-19T22:22:34.581Z,3.06
2022-10-19T22:24:54.939Z,3.03
2022-10-19T22:27:11.503Z,3.05
2022-10-19T22:29:32.104Z,3.09
2022-10-19T22:31:52.819Z,3.07
2022-10-19T22:34:10.947Z,3.05
2022-10-19T22:36:31.498Z,3.10
2022-10-19T22:38:50.538Z,3.02
2022-10-19T22:41:07.113Z,3.05
2022-10-19T22:43:23.653Z,3.05
2022-10-19T22:45:44.270Z,3.09
2022-10-19T22:48:04.948Z,3.09
2022-10-19T22:50:25.472Z,3.09
2022-10-19T22:52:46.019Z,3.03
2022-10-19T22:55:06.644Z,3.07
2022-10-19T22:57:27.250Z,3.15
2022-10-19T22:59:46.465Z,3.20
2022-10-19T23:02:07.181Z,3.15
2022-10-19T23:04:27.550Z,3.13
2022-10-19T23:06:48.106Z,3.09
2022-10-19T23:09:09.200Z,3.00
2022-10-19T23:11:29.821Z,2.97
2022-10-19T23:13:47.957Z,2.89
2022-10-19T23:16:06.091Z,2.91
2022-10-19T23:18:24.149Z,2.92
2022-10-19T23:20:44.657Z,2.89
2022-10-19T23:23:05.282Z,2.89
2022-10-19T23:25:25.866Z,2.91
2022-10-19T23:27:43.978Z,2.88
2022-10-19T23:30:04.622Z,2.82
2022-10-19T23:32:25.171Z,2.74
2022-10-19T23:34:48.270Z,2.74
2022-10-19T23:37:06.340Z,2.77
2022-10-19T23:39:25.356Z,2.79
2022-10-19T23:41:46.045Z,2.82
2022-10-19T23:44:07.067Z,2.74
2022-10-19T23:46:25.307Z,2.77
2022-10-19T23:48:46.811Z,2.76
2022-10-19T23:51:06.875Z,2.82
2022-10-19T23:53:24.975Z,2.88
2022-10-19T23:55:45.530Z,2.77
2022-10-19T23:58:06.221Z,2.70
